createdAt,value
2022-08-11T00:00:13.841Z,2.70
2022-08-11T00:02:44.066Z,2.53
2022-08-11T00:05:15.071Z,2.50
2022-08-11T00:07:51.421Z,2.55
2022-08-11T00:10:27.799Z,2.70
2022-08-11T00:12:58.584Z,2.40
2022-08-11T00:15:27.143Z,2.85
2022-08-11T00:18:00.077Z,2.63
2022-08-11T00:20:35.339Z,2.65
2022-08-11T00:23:14.182Z,2.58
2022-08-11T00:25:51.918Z,2.50
2022-08-11T00:28:33.701Z,2.67
2022-08-11T00:31:06.258Z,2.60
2022-08-11T00:33:45.196Z,2.97
2022-08-11T00:36:15.779Z,2.63
2022-08-11T00:38:45.192Z,2.65
2022-08-11T00:41:41.750Z,2.50
2022-08-11T00:44:26.811Z,2.72
2022-08-11T00:47:28.981Z,3.10
2022-08-11T00:50:01.421Z,2.40
2022-08-11T00:52:40.600Z,2.72
2022-08-11T00:55:55.925Z,2.70
2022-08-11T00:58:50.686Z,2.42
2022-08-11T01:01:17.813Z,2.50
2022-08-11T01:04:22.103Z,2.78
2022-08-11T01:07:14.694Z,2.97
2022-08-11T01:10:07.541Z,2.50
2022-08-11T01:12:44.055Z,2.50
2022-08-11T01:15:32.298Z,2.67
2022-08-11T01:18:17.161Z,2.67
2022-08-11T01:21:07.840Z,2.75
2022-08-11T01:24:19.520Z,2.75
2022-08-11T01:27:03.169Z,2.70
2022-08-11T01:30:03.576Z,2.53
2022-08-11T01:32:36.162Z,2.72
2022-08-11T01:35:24.449Z,2.58
2022-08-11T01:38:14.982Z,2.78
2022-08-11T01:41:03.075Z,2.78
2022-08-11T01:43:48.302Z,2.70
2022-08-11T01:46:32.503Z,2.60
2022-08-11T01:49:29.058Z,3.10
2022-08-11T01:52:18.616Z,2.80
2022-08-11T01:55:26.776Z,3.05
2022-08-11T01:58:19.904Z,2.90
2022-08-11T02:01:05.780Z,3.15
2022-08-11T02:03:44.679Z,2.65
2022-08-11T02:06:40.937Z,2.80
2022-08-11T02:09:17.209Z,2.83
2022-08-11T02:11:49.433Z,2.53
2022-08-11T02:14:34.184Z,2.67
2022-08-11T02:17:21.164Z,2.85
2022-08-11T02:20:22.117Z,2.70
2022-08-11T02:23:58.685Z,3.00
2022-08-11T02:26:24.774Z,2.92
2022-08-11T02:29:30.985Z,3.00
2022-08-11T02:32:39.028Z,3.17
2022-08-11T02:35:14.727Z,2.88
2022-08-11T02:38:00.897Z,2.78
2022-08-11T02:40:56.707Z,3.03
2022-08-11T02:43:41.130Z,2.58
2022-08-11T02:47:00.224Z,2.75
2022-08-11T02:50:06.366Z,2.80
2022-08-11T02:52:49.334Z,2.60
2022-08-11T02:56:08.651Z,2.80
2022-08-11T02:59:21.832Z,2.70
2022-08-11T03:02:05.188Z,3.05
2022-08-11T03:04:51.317Z,3.00
2022-08-11T03:07:28.832Z,2.33
2022-08-11T03:10:09.843Z,2.95
2022-08-11T03:13:19.907Z,2.90
2022-08-11T03:16:26.453Z,2.50
2022-08-11T03:19:12.645Z,2.88
2022-08-11T03:22:07.412Z,3.00
2022-08-11T03:24:40.087Z,3.47
2022-08-11T03:27:24.131Z,3.00
2022-08-11T03:30:08.178Z,2.70
2022-08-11T03:33:24.094Z,3.03
2022-08-11T03:36:25.964Z,2.95
2022-08-11T03:39:13.244Z,3.10
2022-08-11T03:42:02.610Z,2.63
2022-08-11T03:45:13.470Z,2.90
2022-08-11T03:47:57.005Z,2.80
2022-08-11T03:50:55.385Z,3.08
2022-08-11T03:53:46.587Z,3.10
2022-08-11T03:56:50.280Z,3.00
2022-08-11T03:59:17.159Z,3.20
2022-08-11T04:02:10.099Z,2.97
2022-08-11T04:05:13.595Z,2.90
2022-08-11T04:08:04.434Z,3.03
2022-08-11T04:10:48.302Z,2.80
2022-08-11T04:13:32.917Z,2.95
2022-08-11T04:16:15.915Z,3.08
2022-08-11T04:19:29.821Z,3.13
2022-08-11T04:22:32.991Z,3.25
2022-08-11T04:25:10.785Z,3.15
2022-08-11T04:27:56.174Z,2.70
2022-08-11T04:30:44.740Z,2.95
2022-08-11T04:33:35.032Z,2.95
2022-08-11T04:36:09.501Z,2.63
2022-08-11T04:38:46.041Z,3.30
2022-08-11T04:42:08.870Z,2.85
2022-08-11T04:44:53.824Z,3.03
2022-08-11T04:48:08.544Z,3.10
2022-08-11T04:51:27.784Z,3.15
2022-08-11T04:55:04.323Z,2.63
2022-08-11T04:58:20.576Z,2.75
2022-08-11T05:01:26.709Z,2.80
2022-08-11T05:04:32.238Z,2.90
2022-08-11T05:07:31.572Z,3.33
2022-08-11T05:10:45.975Z,3.20
2022-08-11T05:13:43.237Z,3.03
2022-08-11T05:16:34.680Z,2.80
2022-08-11T05:19:21.142Z,2.80
2022-08-11T05:22:12.766Z,2.88
2022-08-11T05:25:15.640Z,2.85
2022-08-11T05:28:51.607Z,2.80
2022-08-11T05:31:41.065Z,3.03
2022-08-11T05:34:26.408Z,3.05
2022-08-11T05:37:23.941Z,3.00
2022-08-11T05:40:10.045Z,3.05
2022-08-11T05:43:02.007Z,2.67
2022-08-11T05:46:02.636Z,3.00
2022-08-11T05:48:54.962Z,2.92
2022-08-11T05:51:52.320Z,2.92
2022-08-11T05:54:42.527Z,2.80
2022-08-11T05:57:48.919Z,2.67
2022-08-11T06:00:15.789Z,3.35
2022-08-11T06:02:55.229Z,2.83
2022-08-11T06:05:22.799Z,2.85
2022-08-11T06:07:56.956Z,2.80
2022-08-11T06:10:33.231Z,3.10
2022-08-11T06:13:01.195Z,2.90
2022-08-11T06:15:30.087Z,2.97
2022-08-11T06:17:58.887Z,2.95
2022-08-11T06:20:26.011Z,3.28
2022-08-11T06:23:03.581Z,3.05
2022-08-11T06:25:32.813Z,3.08
2022-08-11T06:28:00.746Z,2.80
2022-08-11T06:30:47.088Z,3.05
2022-08-11T06:33:33.436Z,2.78
2022-08-11T06:36:10.988Z,2.58
2022-08-11T06:39:12.524Z,2.72
2022-08-11T06:41:54.287Z,2.70
2022-08-11T06:44:39.793Z,3.35
2022-08-11T06:47:10.159Z,2.72
2022-08-11T06:50:04.483Z,2.63
2022-08-11T06:52:36.656Z,2.70
2022-08-11T06:55:58.039Z,2.90
2022-08-11T06:58:49.508Z,2.80
2022-08-11T07:01:21.229Z,3.15
2022-08-11T07:03:58.320Z,2.90
2022-08-11T07:07:12.390Z,3.10
2022-08-11T07:10:13.109Z,2.72
2022-08-11T07:13:09.162Z,3.05
2022-08-11T07:16:12.655Z,2.83
2022-08-11T07:19:00.510Z,2.75
2022-08-11T07:22:02.972Z,2.97
2022-08-11T07:25:01.317Z,3.08
2022-08-11T07:27:56.063Z,2.60
2022-08-11T07:30:31.850Z,2.80
2022-08-11T07:33:01.736Z,2.83
2022-08-11T07:35:33.870Z,2.60
2022-08-11T07:38:11.682Z,2.67
2022-08-11T07:40:39.118Z,2.60
2022-08-11T07:43:07.076Z,2.85
2022-08-11T07:45:53.300Z,2.60
2022-08-11T07:48:39.318Z,2.67
2022-08-11T07:51:24.875Z,2.85
2022-08-11T07:53:58.504Z,2.70
2022-08-11T07:56:55.255Z,3.20
2022-08-11T08:00:03.760Z,2.70
2022-08-11T08:02:49.421Z,2.75
2022-08-11T08:05:36.223Z,2.58
2022-08-11T08:08:21.990Z,2.58
2022-08-11T08:11:08.438Z,2.63
2022-08-11T08:13:55.777Z,2.78
2022-08-11T08:16:41.348Z,2.63
2022-08-11T08:19:11.169Z,2.70
2022-08-11T08:21:39.254Z,2.40
2022-08-11T08:24:07.363Z,2.40
2022-08-11T08:27:03.502Z,2.33
2022-08-11T08:29:52.974Z,3.00
2022-08-11T08:32:22.177Z,2.55
2022-08-11T08:34:54.975Z,2.38
2022-08-11T08:37:47.203Z,2.10
2022-08-11T08:40:14.499Z,2.20
2022-08-11T08:42:53.503Z,2.50
2022-08-11T08:45:20.923Z,2.30
2022-08-11T08:47:54.883Z,2.28
2022-08-11T08:50:27.496Z,2.65
2022-08-11T08:53:05.893Z,2.65
2022-08-11T08:55:33.684Z,2.13
2022-08-11T08:58:01.059Z,2.20
2022-08-11T09:00:42.887Z,2.53
2022-08-11T09:03:36.448Z,2.10
2022-08-11T09:05:58.457Z,2.00
2022-08-11T09:08:25.659Z,2.50
2022-08-11T09:11:14.034Z,2.63
2022-08-11T09:13:44.233Z,2.33
2022-08-11T09:16:13.457Z,2.10
2022-08-11T09:18:44.551Z,2.20
2022-08-11T09:21:14.684Z,2.30
2022-08-11T09:24:26.103Z,2.22
2022-08-11T09:27:00.212Z,2.08
2022-08-11T09:29:29.014Z,2.20
2022-08-11T09:31:57.020Z,2.55
2022-08-11T09:34:26.412Z,2.17
2022-08-11T09:37:13.507Z,2.10
2022-08-11T09:40:15.538Z,2.00
2022-08-11T09:43:02.625Z,2.22
2022-08-11T09:45:39.893Z,2.40
2022-08-11T09:48:07.846Z,2.10
2022-08-11T09:50:38.226Z,2.35
2022-08-11T09:53:36.681Z,2.50
2022-08-11T09:55:53.674Z,2.45
2022-08-11T09:58:41.633Z,2.55
2022-08-11T10:01:26.967Z,2.47
2022-08-11T10:04:24.856Z,2.38
2022-08-11T10:07:04.599Z,1.90
2022-08-11T10:09:39.417Z,2.50
2022-08-11T10:12:11.027Z,2.17
2022-08-11T10:15:04.340Z,2.38
2022-08-11T10:17:36.371Z,2.25
2022-08-11T10:20:07.606Z,2.10
2022-08-11T10:22:54.358Z,2.03
2022-08-11T10:25:40.660Z,2.20
2022-08-11T10:28:28.775Z,2.10
2022-08-11T10:31:15.197Z,2.30
2022-08-11T10:34:00.315Z,2.30
2022-08-11T10:36:32.781Z,2.28
2022-08-11T10:39:02.290Z,2.25
2022-08-11T10:42:06.436Z,2.10
2022-08-11T10:44:44.334Z,2.20
2022-08-11T10:47:32.360Z,2.25
2022-08-11T10:50:18.721Z,2.30
2022-08-11T10:53:06.995Z,2.03
2022-08-11T10:55:53.832Z,2.00
2022-08-11T10:58:43.854Z,2.45
2022-08-11T11:01:11.637Z,2.00
2022-08-11T11:03:39.100Z,2.00
2022-08-11T11:06:12.797Z,2.10
2022-08-11T11:09:11.147Z,2.40
2022-08-11T11:11:59.594Z,2.20
2022-08-11T11:14:56.389Z,2.08
2022-08-11T11:17:48.609Z,2.20
2022-08-11T11:20:34.634Z,2.10
2022-08-11T11:23:33.684Z,1.95
2022-08-11T11:26:27.463Z,2.10
2022-08-11T11:29:20.607Z,2.13
2022-08-11T11:32:14.527Z,2.00
2022-08-11T11:34:52.857Z,1.95
2022-08-11T11:37:22.922Z,2.00
2022-08-11T11:39:50.184Z,1.90
2022-08-11T11:42:18.478Z,1.80
2022-08-11T11:44:46.842Z,2.17
2022-08-11T11:47:16.143Z,1.98
2022-08-11T11:49:47.354Z,1.70
2022-08-11T11:52:18.481Z,1.90
2022-08-11T11:54:52.031Z,1.80
2022-08-11T11:57:41.461Z,1.88
2022-08-11T12:00:48.755Z,1.70
2022-08-11T12:03:17.859Z,1.83
2022-08-11T12:05:47.148Z,1.95
2022-08-11T12:08:19.323Z,1.85
2022-08-11T12:11:15.588Z,1.60
2022-08-11T12:13:45.479Z,1.95
2022-08-11T12:16:33.759Z,2.08
2022-08-11T12:19:05.219Z,2.00
2022-08-11T12:21:34.215Z,1.88
2022-08-11T12:24:21.550Z,2.05
2022-08-11T12:27:15.245Z,1.75
2022-08-11T12:29:36.393Z,1.70
2022-08-11T12:32:10.564Z,1.83
2022-08-11T12:34:37.585Z,2.03
2022-08-11T12:37:10.729Z,1.80
2022-08-11T12:40:15.931Z,1.52
2022-08-11T12:43:37.291Z,1.70
2022-08-11T12:46:13.884Z,2.05
2022-08-11T12:49:04.231Z,1.77
2022-08-11T12:52:12.925Z,1.67
2022-08-11T12:54:47.943Z,2.00
2022-08-11T12:57:50.855Z,1.80
2022-08-11T13:00:37.903Z,2.25
2022-08-11T13:03:25.689Z,1.92
2022-08-11T13:05:55.746Z,1.88
2022-08-11T13:08:25.009Z,1.80
2022-08-11T13:11:12.261Z,1.73
2022-08-11T13:13:54.136Z,2.00
2022-08-11T13:16:25.126Z,1.63
2022-08-11T13:18:53.249Z,1.67
2022-08-11T13:21:21.680Z,1.63
2022-08-11T13:24:00.873Z,2.13
2022-08-11T13:26:43.479Z,1.83
2022-08-11T13:29:20.015Z,1.90
2022-08-11T13:31:47.994Z,1.63
2022-08-11T13:34:20.032Z,1.70
2022-08-11T13:36:53.024Z,1.77
2022-08-11T13:39:24.205Z,1.70
2022-08-11T13:41:55.111Z,1.60
2022-08-11T13:44:25.866Z,1.80
2022-08-11T13:47:02.342Z,1.98
2022-08-11T13:49:31.251Z,1.70
2022-08-11T13:51:59.252Z,2.00
2022-08-11T13:54:30.242Z,1.85
2022-08-11T13:57:00.950Z,1.85
2022-08-11T13:59:29.777Z,1.95
2022-08-11T14:02:21.671Z,1.98
2022-08-11T14:04:57.914Z,2.40
2022-08-11T14:07:37.597Z,1.65
2022-08-11T14:10:07.544Z,1.77
2022-08-11T14:12:55.725Z,1.60
2022-08-11T14:15:34.789Z,1.92
2022-08-11T14:21:14.604Z,1.80
2022-08-11T14:23:44.766Z,1.73
2022-08-11T14:26:28.507Z,1.65
2022-08-11T14:29:02.782Z,2.05
2022-08-11T14:31:31.910Z,1.70
2022-08-11T14:34:02.551Z,1.60
2022-08-11T14:36:35.537Z,1.60
2022-08-11T14:39:06.845Z,1.77
2022-08-11T14:42:11.464Z,1.70
2022-08-11T14:45:23.388Z,2.00
2022-08-11T14:47:53.443Z,1.50
2022-08-11T14:50:25.834Z,1.95
2022-08-11T14:53:01.273Z,1.80
2022-08-11T14:55:48.669Z,1.80
2022-08-11T14:58:18.274Z,1.88
2022-08-11T15:00:46.330Z,1.83
2022-08-11T15:03:15.388Z,1.70
2022-08-11T15:05:55.835Z,1.63
2022-08-11T15:08:48.167Z,1.40
2022-08-11T15:11:36.499Z,1.67
2022-08-11T15:14:07.311Z,1.90
2022-08-11T15:16:58.653Z,2.13
2022-08-11T15:19:27.350Z,1.70
2022-08-11T15:22:12.602Z,2.00
2022-08-11T15:24:39.315Z,1.98
2022-08-11T15:27:29.863Z,2.10
2022-08-11T15:30:32.460Z,1.75
2022-08-11T15:33:22.895Z,2.03
2022-08-11T15:36:10.048Z,1.88
2022-08-11T15:38:42.712Z,1.98
2022-08-11T15:41:32.331Z,1.65
2022-08-11T15:44:18.774Z,1.95
2022-08-11T15:46:49.309Z,1.80
2022-08-11T15:50:11.270Z,1.90
2022-08-11T15:52:19.432Z,1.83
2022-08-11T15:54:49.045Z,1.90
2022-08-11T15:57:40.028Z,1.90
2022-08-11T16:00:26.843Z,1.80
2022-08-11T16:02:54.957Z,1.60
2022-08-11T16:05:45.645Z,1.92
2022-08-11T16:08:15.446Z,2.08
2022-08-11T16:10:44.085Z,1.60
2022-08-11T16:13:13.766Z,2.03
2022-08-11T16:16:14.300Z,1.55
2022-08-11T16:18:57.207Z,2.00
2022-08-11T16:21:36.170Z,1.55
2022-08-11T16:26:30.474Z,1.70
2022-08-11T16:27:13.050Z,2.22
2022-08-11T16:29:47.655Z,1.80
2022-08-11T16:32:21.688Z,1.73
2022-08-11T16:35:12.036Z,1.83
2022-08-11T16:37:58.822Z,1.77
2022-08-11T16:40:25.921Z,1.80
2022-08-11T16:43:12.514Z,1.55
2022-08-11T16:45:59.437Z,1.70
2022-08-11T16:48:36.352Z,1.60
2022-08-11T16:51:10.513Z,2.00
2022-08-11T16:53:59.765Z,2.13
2022-08-11T16:56:33.638Z,1.60
2022-08-11T16:59:18.297Z,1.80
2022-08-11T17:01:53.257Z,1.73
2022-08-11T17:04:43.716Z,1.75
2022-08-11T17:07:42.107Z,1.60
2022-08-11T17:10:52.658Z,1.98
2022-08-11T17:13:36.835Z,1.95
2022-08-11T17:16:13.123Z,1.90
2022-08-11T17:18:48.005Z,2.17
2022-08-11T17:21:22.915Z,1.80
2022-08-11T17:23:54.962Z,1.70
2022-08-11T17:26:58.690Z,2.10
2022-08-11T17:29:32.094Z,1.80
2022-08-11T17:32:20.759Z,1.95
2022-08-11T17:35:07.835Z,2.05
2022-08-11T17:37:36.524Z,1.98
2022-08-11T17:40:06.893Z,2.20
2022-08-11T17:43:01.636Z,2.08
2022-08-11T17:46:00.575Z,2.17
2022-08-11T17:48:29.670Z,2.20
2022-08-11T17:51:04.252Z,2.25
2022-08-11T17:54:23.973Z,2.20
2022-08-11T17:57:21.406Z,2.00
2022-08-11T17:59:53.567Z,1.90
2022-08-11T18:02:46.229Z,2.10
2022-08-11T18:05:14.137Z,1.90
2022-08-11T18:08:01.579Z,2.22
2022-08-11T18:10:49.600Z,1.90
2022-08-11T18:13:40.617Z,1.70
2022-08-11T18:16:27.046Z,2.20
2022-08-11T18:19:15.462Z,2.20
2022-08-11T18:22:14.367Z,2.10
2022-08-11T18:25:07.980Z,2.05
2022-08-11T18:27:56.997Z,2.22
2022-08-11T18:30:43.705Z,2.38
2022-08-11T18:36:42.345Z,2.40
2022-08-11T18:39:30.662Z,1.98
2022-08-11T18:42:29.184Z,2.28
2022-08-11T18:45:31.952Z,2.72
2022-08-11T18:48:39.011Z,2.53
2022-08-11T18:51:31.335Z,2.15
2022-08-11T18:54:30.854Z,2.28
2022-08-11T18:57:20.731Z,2.30
2022-08-11T19:00:07.295Z,2.40
2022-08-11T19:02:55.322Z,2.60
2022-08-11T19:06:31.918Z,2.35
2022-08-11T19:08:50.722Z,2.38
2022-08-11T19:11:43.558Z,2.75
2022-08-11T19:14:31.478Z,2.30
2022-08-11T19:17:45.126Z,2.33
2022-08-11T19:20:29.075Z,2.15
2022-08-11T19:23:16.086Z,2.60
2022-08-11T19:26:06.015Z,2.25
2022-08-11T19:28:54.073Z,2.47
2022-08-11T19:31:44.310Z,2.20
2022-08-11T19:34:43.581Z,2.20
2022-08-11T19:37:30.188Z,2.35
2022-08-11T19:40:27.336Z,2.53
2022-08-11T19:43:23.789Z,2.33
2022-08-11T19:46:16.812Z,2.70
2022-08-11T19:49:09.710Z,2.70
2022-08-11T19:51:56.773Z,2.50
2022-08-11T19:54:46.903Z,2.72
2022-08-11T19:57:39.357Z,2.63
2022-08-11T20:00:30.217Z,2.63
2022-08-11T20:03:16.990Z,3.30
2022-08-11T20:06:03.897Z,3.00
2022-08-11T20:08:52.965Z,2.90
2022-08-11T20:11:41.256Z,2.53
2022-08-11T20:14:28.134Z,2.35
2022-08-11T20:17:15.007Z,2.25
2022-08-11T20:22:51.282Z,2.00
2022-08-11T20:25:38.310Z,2.50
2022-08-11T20:28:25.153Z,2.20
2022-08-11T20:31:11.835Z,2.28
2022-08-11T20:33:58.023Z,2.35
2022-08-11T20:36:45.780Z,2.25
2022-08-11T20:39:36.210Z,2.22
2022-08-11T20:42:26.156Z,2.45
2022-08-11T20:45:16.699Z,2.40
2022-08-11T20:48:06.802Z,2.00
2022-08-11T20:50:54.985Z,2.33
2022-08-11T20:53:43.307Z,2.10
2022-08-11T20:56:30.197Z,2.30
2022-08-11T20:59:21.983Z,2.42
2022-08-11T21:05:19.597Z,2.38
2022-08-11T21:08:25.429Z,2.40
2022-08-11T21:11:13.155Z,2.33
2022-08-11T21:14:01.637Z,2.25
2022-08-11T21:16:53.446Z,2.28
2022-08-11T21:19:59.773Z,2.45
2022-08-11T21:23:19.997Z,2.30
2022-08-11T21:26:23.750Z,2.85
2022-08-11T21:29:12.868Z,2.20
2022-08-11T21:32:00.293Z,2.45
2022-08-11T21:34:46.411Z,2.20
2022-08-11T21:37:34.240Z,2.28
2022-08-11T21:40:21.617Z,2.28
2022-08-11T21:43:08.543Z,2.38
2022-08-11T21:45:57.209Z,2.30
2022-08-11T21:48:47.485Z,2.17
2022-08-11T21:51:32.905Z,2.35
2022-08-11T21:54:19.989Z,2.22
2022-08-11T21:57:06.547Z,2.30
2022-08-11T22:00:10.767Z,2.63
2022-08-11T22:03:03.376Z,2.33
2022-08-11T22:05:51.069Z,2.33
2022-08-11T22:08:37.003Z,2.20
2022-08-11T22:11:31.792Z,2.55
2022-08-11T22:14:19.065Z,2.50
2022-08-11T22:17:04.120Z,2.22
2022-08-11T22:19:50.414Z,2.70
2022-08-11T22:22:35.700Z,2.55
2022-08-11T22:25:39.429Z,2.33
2022-08-11T22:28:37.600Z,2.25
2022-08-11T22:31:24.387Z,2.42
2022-08-11T22:34:09.845Z,2.30
2022-08-11T22:36:56.261Z,2.40
2022-08-11T22:39:43.323Z,2.45
2022-08-11T22:42:34.012Z,2.50
2022-08-11T22:45:20.089Z,2.35
2022-08-11T22:48:07.543Z,2.58
2022-08-11T22:50:55.417Z,2.70
2022-08-11T22:53:55.255Z,2.40
2022-08-11T22:56:45.481Z,2.40
2022-08-11T22:59:32.806Z,2.58
2022-08-11T23:02:18.308Z,2.60
2022-08-11T23:05:03.752Z,2.47
2022-08-11T23:07:50.551Z,2.55
2022-08-11T23:10:38.814Z,2.60
2022-08-11T23:13:25.899Z,2.30
2022-08-11T23:16:14.718Z,2.63
2022-08-11T23:19:00.582Z,2.15
2022-08-11T23:21:47.030Z,2.47
2022-08-11T23:24:32.887Z,2.60
2022-08-11T23:27:20.483Z,2.42
2022-08-11T23:30:09.137Z,2.63
2022-08-11T23:32:55.090Z,2.22
2022-08-11T23:35:53.996Z,2.40
2022-08-11T23:38:42.356Z,2.38
2022-08-11T23:41:27.610Z,2.67
2022-08-11T23:44:13.708Z,2.30
2022-08-11T23:46:59.944Z,2.50
2022-08-11T23:49:46.871Z,2.50
2022-08-11T23:52:33.813Z,2.45
2022-08-11T23:55:19.057Z,2.50
2022-08-11T23:58:04.649Z,2.42
